createdAt,value
2018-08-18T00:00:26.113Z,13.20
2018-08-18T00:02:55.390Z,13.10
2018-08-18T00:05:24.703Z,13.10
2018-08-18T00:07:54.289Z,13.10
2018-08-18T00:10:23.827Z,13.10
2018-08-18T00:12:53.228Z,13.10
2018-08-18T00:15:22.518Z,13.10
2018-08-18T00:17:52.125Z,13.10
2018-08-18T00:20:23.941Z,13.10
2018-08-18T00:22:53.878Z,13.00
2018-08-18T00:25:23.160Z,13.00
2018-08-18T00:27:52.644Z,13.00
2018-08-18T00:30:28.077Z,13.00
2018-08-18T00:32:57.074Z,13.00
2018-08-18T00:35:26.658Z,13.00
2018-08-18T00:37:55.926Z,12.90
2018-08-18T00:40:25.438Z,12.90
2018-08-18T00:42:57.437Z,12.90
2018-08-18T00:45:26.802Z,12.90
2018-08-18T00:47:55.893Z,12.80
2018-08-18T00:50:37.845Z,12.80
2018-08-18T00:53:08.925Z,12.80
2018-08-18T00:55:38.422Z,12.80
2018-08-18T00:58:20.509Z,12.70
2018-08-18T01:01:05.221Z,12.70
2018-08-18T01:03:43.539Z,12.70
2018-08-18T01:06:19.655Z,12.70
2018-08-18T01:08:51.876Z,12.60
2018-08-18T01:11:27.651Z,12.60
2018-08-18T01:13:57.722Z,12.60
2018-08-18T01:16:27.365Z,12.60
2018-08-18T01:18:56.629Z,12.60
2018-08-18T01:21:26.212Z,12.60
2018-08-18T01:23:55.343Z,12.60
2018-08-18T01:26:24.784Z,12.60
2018-08-18T01:28:59.104Z,12.60
2018-08-18T01:31:28.244Z,12.60
2018-08-18T01:33:58.707Z,12.60
2018-08-18T01:36:28.784Z,12.70
2018-08-18T01:38:57.892Z,12.80
2018-08-18T01:41:27.049Z,12.80
2018-08-18T01:44:26.912Z,12.80
2018-08-18T01:46:56.028Z,12.70
2018-08-18T01:49:29.723Z,12.70
2018-08-18T01:52:00.696Z,12.70
2018-08-18T01:54:30.075Z,12.60
2018-08-18T01:57:04.753Z,12.50
2018-08-18T01:59:34.282Z,12.50
2018-08-18T02:02:03.588Z,12.40
2018-08-18T02:04:32.720Z,12.30
2018-08-18T02:07:37.635Z,12.30
2018-08-18T02:10:06.869Z,12.30
2018-08-18T02:12:36.383Z,12.30
2018-08-18T02:15:05.494Z,12.20
2018-08-18T02:17:37.538Z,12.20
2018-08-18T02:20:08.623Z,12.20
2018-08-18T02:22:38.189Z,12.20
2018-08-18T02:25:07.548Z,12.10
2018-08-18T02:27:37.689Z,12.10
2018-08-18T02:30:23.711Z,12.10
2018-08-18T02:32:53.685Z,12.00
2018-08-18T02:35:23.911Z,12.00
2018-08-18T02:37:53.770Z,12.00
2018-08-18T02:40:22.943Z,12.00
2018-08-18T02:42:52.263Z,12.00
2018-08-18T02:45:21.509Z,12.00
2018-08-18T02:48:04.909Z,12.00
2018-08-18T02:50:35.134Z,12.00
2018-08-18T02:53:14.488Z,11.90
2018-08-18T02:55:43.917Z,11.90
2018-08-18T02:58:13.069Z,11.90
2018-08-18T03:00:42.312Z,11.90
2018-08-18T03:03:11.781Z,11.90
2018-08-18T03:05:40.903Z,11.90
2018-08-18T03:08:11.562Z,11.80
2018-08-18T03:10:40.757Z,11.80
2018-08-18T03:13:09.873Z,11.80
2018-08-18T03:15:56.412Z,11.80
2018-08-18T03:18:31.393Z,11.70
2018-08-18T03:21:01.188Z,11.70
2018-08-18T03:23:30.464Z,11.70
2018-08-18T03:25:59.716Z,11.70
2018-08-18T03:28:29.183Z,11.60
2018-08-18T03:30:58.643Z,11.60
2018-08-18T03:33:29.272Z,11.60
2018-08-18T03:35:58.471Z,11.60
2018-08-18T03:38:27.888Z,11.50
2018-08-18T03:40:57.299Z,11.50
2018-08-18T03:43:26.386Z,11.50
2018-08-18T03:45:55.454Z,11.40
2018-08-18T03:48:24.687Z,11.40
2018-08-18T03:50:53.865Z,11.30
2018-08-18T03:53:23.053Z,11.30
2018-08-18T03:55:53.563Z,11.30
2018-08-18T03:58:22.976Z,11.20
2018-08-18T04:00:52.102Z,11.20
2018-08-18T04:03:21.344Z,11.20
2018-08-18T04:05:50.776Z,11.20
2018-08-18T04:08:19.992Z,11.20
2018-08-18T04:10:49.125Z,11.20
2018-08-18T04:13:18.289Z,11.20
2018-08-18T04:15:47.423Z,11.20
2018-08-18T04:18:17.444Z,11.20
2018-08-18T04:20:47.101Z,11.20
2018-08-18T04:23:16.452Z,11.20
2018-08-18T04:25:45.562Z,11.20
2018-08-18T04:28:14.784Z,11.20
2018-08-18T04:30:44.261Z,11.10
2018-08-18T04:33:13.389Z,11.10
2018-08-18T04:35:44.037Z,11.00
2018-08-18T04:38:13.157Z,10.90
2018-08-18T04:40:42.508Z,10.90
2018-08-18T04:43:11.934Z,10.90
2018-08-18T04:45:41.290Z,10.90
2018-08-18T04:48:15.316Z,10.90
2018-08-18T04:50:44.434Z,10.90
2018-08-18T04:53:13.915Z,10.90
2018-08-18T04:55:43.317Z,10.90
2018-08-18T04:58:12.673Z,10.90
2018-08-18T05:00:41.823Z,11.00
2018-08-18T05:03:12.295Z,11.00
2018-08-18T05:05:41.797Z,11.00
2018-08-18T05:08:10.902Z,11.10
2018-08-18T05:10:40.023Z,11.20
2018-08-18T05:13:09.150Z,11.40
2018-08-18T05:15:38.314Z,11.50
2018-08-18T05:18:07.808Z,11.50
2018-08-18T05:20:39.082Z,11.60
2018-08-18T05:23:20.893Z,11.60
2018-08-18T05:25:52.797Z,11.60
2018-08-18T05:28:23.277Z,11.70
2018-08-18T05:30:54.151Z,11.70
2018-08-18T05:33:23.306Z,11.80
2018-08-18T05:35:52.506Z,11.90
2018-08-18T05:38:22.009Z,12.00
2018-08-18T05:40:51.688Z,12.00
2018-08-18T05:43:21.214Z,12.10
2018-08-18T05:45:50.354Z,12.10
2018-08-18T05:48:19.546Z,12.20
2018-08-18T05:50:50.069Z,12.20
2018-08-18T05:53:24.035Z,12.30
2018-08-18T05:55:53.224Z,12.40
2018-08-18T05:58:22.457Z,12.50
2018-08-18T06:00:56.028Z,12.70
2018-08-18T06:03:26.244Z,12.80
2018-08-18T06:05:56.457Z,12.90
2018-08-18T06:08:27.523Z,13.00
2018-08-18T06:10:57.461Z,13.20
2018-08-18T06:13:26.883Z,13.20
2018-08-18T06:16:09.854Z,13.30
2018-08-18T06:18:40.410Z,13.40
2018-08-18T06:21:12.714Z,13.60
2018-08-18T06:23:41.845Z,13.60
2018-08-18T06:26:12.847Z,13.70
2018-08-18T06:28:42.099Z,13.80
2018-08-18T06:31:12.981Z,13.90
2018-08-18T06:33:42.400Z,14.00
2018-08-18T06:36:11.666Z,14.10
2018-08-18T06:38:40.860Z,14.30
2018-08-18T06:41:11.971Z,14.40
2018-08-18T06:43:41.366Z,14.60
2018-08-18T06:46:10.542Z,14.70
2018-08-18T06:48:39.904Z,14.90
2018-08-18T06:51:09.918Z,15.00
2018-08-18T06:53:43.117Z,15.10
2018-08-18T06:56:13.015Z,15.20
2018-08-18T06:58:42.158Z,15.30
2018-08-18T07:01:12.648Z,15.50
2018-08-18T07:03:44.106Z,15.60
2018-08-18T07:06:14.257Z,15.80
2018-08-18T07:08:52.172Z,15.90
2018-08-18T07:11:21.351Z,16.10
2018-08-18T07:13:51.363Z,16.30
2018-08-18T07:16:20.597Z,16.40
2018-08-18T07:18:49.774Z,16.60
2018-08-18T07:21:18.914Z,16.70
2018-08-18T07:23:48.038Z,16.80
2018-08-18T07:26:17.410Z,17.00
2018-08-18T07:28:46.705Z,17.10
2018-08-18T07:31:15.707Z,17.30
2018-08-18T07:33:44.852Z,17.30
2018-08-18T07:36:14.802Z,17.40
2018-08-18T07:38:45.654Z,17.50
2018-08-18T07:41:14.964Z,17.60
2018-08-18T07:43:44.201Z,17.70
2018-08-18T07:46:13.616Z,17.70
2018-08-18T07:48:42.640Z,17.80
2018-08-18T07:51:12.915Z,17.90
2018-08-18T07:53:43.541Z,18.00
2018-08-18T07:56:13.238Z,18.10
2018-08-18T07:58:42.975Z,18.20
2018-08-18T08:01:12.867Z,18.30
2018-08-18T08:03:42.231Z,18.40
2018-08-18T08:06:11.422Z,18.50
2018-08-18T08:08:45.736Z,18.60
2018-08-18T08:11:15.168Z,18.60
2018-08-18T08:13:44.355Z,18.80
2018-08-18T08:16:14.021Z,18.80
2018-08-18T08:18:43.178Z,18.90
2018-08-18T08:21:12.802Z,19.00
2018-08-18T08:23:43.096Z,19.00
2018-08-18T08:26:15.603Z,19.00
2018-08-18T08:28:44.768Z,19.10
2018-08-18T08:31:14.257Z,19.20
2018-08-18T08:33:43.434Z,19.20
2018-08-18T08:36:15.711Z,19.20
2018-08-18T08:38:53.546Z,19.20
2018-08-18T08:41:26.011Z,19.20
2018-08-18T08:43:55.440Z,19.30
2018-08-18T08:46:24.720Z,19.40
2018-08-18T08:48:57.082Z,19.40
2018-08-18T08:51:27.189Z,19.40
2018-08-18T08:53:58.821Z,19.40
2018-08-18T08:56:34.865Z,19.50
2018-08-18T08:59:05.228Z,19.60
2018-08-18T09:01:35.501Z,19.60
2018-08-18T09:04:05.266Z,19.70
2018-08-18T09:06:35.924Z,19.80
2018-08-18T09:09:09.410Z,19.80
2018-08-18T09:11:38.699Z,19.80
2018-08-18T09:14:09.800Z,19.90
2018-08-18T09:16:42.477Z,20.00
2018-08-18T09:19:11.820Z,20.10
2018-08-18T09:21:50.113Z,20.20
2018-08-18T09:24:19.927Z,20.30
2018-08-18T09:26:52.413Z,20.30
2018-08-18T09:29:22.836Z,20.30
2018-08-18T09:31:52.618Z,20.30
2018-08-18T09:34:22.301Z,20.40
2018-08-18T09:36:51.593Z,20.40
2018-08-18T09:39:36.205Z,20.50
2018-08-18T09:42:07.802Z,20.50
2018-08-18T09:44:52.000Z,20.50
2018-08-18T09:47:21.582Z,20.50
2018-08-18T09:49:51.296Z,20.60
2018-08-18T09:52:20.992Z,20.70
2018-08-18T09:54:53.434Z,20.70
2018-08-18T09:57:30.442Z,20.90
2018-08-18T10:00:03.824Z,20.90
2018-08-18T10:02:33.195Z,20.90
2018-08-18T10:05:03.768Z,21.00
2018-08-18T10:07:34.772Z,21.00
2018-08-18T10:10:05.803Z,21.10
2018-08-18T10:12:35.174Z,21.20
2018-08-18T10:15:04.666Z,21.30
2018-08-18T10:17:34.455Z,21.50
2018-08-18T10:20:03.981Z,21.50
2018-08-18T10:22:34.160Z,21.50
2018-08-18T10:25:03.661Z,21.60
2018-08-18T10:27:32.904Z,21.60
2018-08-18T10:30:03.119Z,21.60
2018-08-18T10:32:32.484Z,21.70
2018-08-18T10:35:02.629Z,21.70
2018-08-18T10:37:32.623Z,21.70
2018-08-18T10:40:06.061Z,21.80
2018-08-18T10:42:35.656Z,21.80
2018-08-18T10:45:08.565Z,21.90
2018-08-18T10:47:37.814Z,22.00
2018-08-18T10:52:19.919Z,22.00
2018-08-18T10:54:49.393Z,22.10
2018-08-18T10:57:29.278Z,22.10
2018-08-18T10:59:58.779Z,22.10
2018-08-18T11:02:33.671Z,22.20
2018-08-18T11:05:03.107Z,22.20
2018-08-18T11:07:32.295Z,22.20
2018-08-18T11:10:01.492Z,22.30
2018-08-18T11:12:36.701Z,22.30
2018-08-18T11:15:09.155Z,22.40
2018-08-18T11:17:38.930Z,22.30
2018-08-18T11:20:14.804Z,22.20
2018-08-18T11:22:56.871Z,22.20
2018-08-18T11:25:28.188Z,22.30
2018-08-18T11:27:58.659Z,22.30
2018-08-18T11:30:27.968Z,22.40
2018-08-18T11:32:58.134Z,22.30
2018-08-18T11:35:28.313Z,22.20
2018-08-18T11:38:13.380Z,22.10
2018-08-18T11:40:43.380Z,22.10
2018-08-18T11:43:19.573Z,22.20
2018-08-18T11:45:50.545Z,22.20
2018-08-18T11:48:21.616Z,22.30
2018-08-18T11:50:52.450Z,22.30
2018-08-18T11:53:23.245Z,22.30
2018-08-18T11:55:54.952Z,22.30
2018-08-18T11:58:25.569Z,22.40
2018-08-18T12:00:57.899Z,22.40
2018-08-18T12:03:37.040Z,22.40
2018-08-18T12:06:06.572Z,22.40
2018-08-18T12:08:36.744Z,22.40
2018-08-18T12:11:08.397Z,22.40
2018-08-18T12:13:41.800Z,22.50
2018-08-18T12:16:14.423Z,22.60
2018-08-18T12:18:44.790Z,22.60
2018-08-18T12:21:14.733Z,22.70
2018-08-18T12:23:45.415Z,22.70
2018-08-18T12:26:21.358Z,22.70
2018-08-18T12:28:53.933Z,22.70
2018-08-18T12:31:26.608Z,22.70
2018-08-18T12:33:59.240Z,22.70
2018-08-18T12:36:29.678Z,22.80
2018-08-18T12:38:59.290Z,22.90
2018-08-18T12:41:28.536Z,22.90
2018-08-18T12:43:59.220Z,22.80
2018-08-18T12:46:37.756Z,22.80
2018-08-18T12:49:09.138Z,22.80
2018-08-18T12:51:38.481Z,22.80
2018-08-18T12:54:07.735Z,22.80
2018-08-18T12:56:40.776Z,22.90
2018-08-18T12:59:12.994Z,22.90
2018-08-18T13:01:46.068Z,23.00
2018-08-18T13:04:18.570Z,23.00
2018-08-18T13:06:49.442Z,23.00
2018-08-18T13:09:24.623Z,23.00
2018-08-18T13:11:55.467Z,23.00
2018-08-18T13:14:30.521Z,23.00
2018-08-18T13:16:59.585Z,23.10
2018-08-18T13:19:36.241Z,23.20
2018-08-18T13:22:05.469Z,23.40
2018-08-18T13:24:35.270Z,23.50
2018-08-18T13:27:05.185Z,23.50
2018-08-18T13:29:34.369Z,23.40
2018-08-18T13:32:04.504Z,23.40
2018-08-18T13:34:35.399Z,23.50
2018-08-18T13:37:06.525Z,23.60
2018-08-18T13:39:35.847Z,23.70
2018-08-18T13:42:19.401Z,23.70
2018-08-18T13:44:48.872Z,23.70
2018-08-18T13:47:18.585Z,23.70
2018-08-18T13:49:51.005Z,23.70
2018-08-18T13:52:21.345Z,23.70
2018-08-18T13:54:58.410Z,23.60
2018-08-18T13:57:33.139Z,23.50
2018-08-18T14:00:02.724Z,23.50
2018-08-18T14:02:33.455Z,23.50
2018-08-18T14:05:05.268Z,23.60
2018-08-18T14:07:47.651Z,23.60
2018-08-18T14:10:20.372Z,23.60
2018-08-18T14:12:49.627Z,23.70
2018-08-18T14:15:19.349Z,23.70
2018-08-18T14:17:52.469Z,23.80
2018-08-18T14:20:23.413Z,23.70
2018-08-18T14:22:56.814Z,23.80
2018-08-18T14:25:26.902Z,23.80
2018-08-18T14:28:02.358Z,23.90
2018-08-18T14:30:35.614Z,23.90
2018-08-18T14:33:05.034Z,23.80
2018-08-18T14:35:36.134Z,23.80
2018-08-18T14:38:05.428Z,23.80
2018-08-18T14:40:34.744Z,23.70
2018-08-18T14:43:07.813Z,23.70
2018-08-18T14:45:37.511Z,23.70
2018-08-18T14:48:07.750Z,23.60
2018-08-18T14:50:38.468Z,23.70
2018-08-18T14:53:25.908Z,23.70
2018-08-18T14:55:55.739Z,23.70
2018-08-18T14:58:31.523Z,23.80
2018-08-18T15:01:05.990Z,23.80
2018-08-18T15:03:36.440Z,23.80
2018-08-18T15:06:07.784Z,23.90
2018-08-18T15:08:37.793Z,23.80
2018-08-18T15:11:07.706Z,23.90
2018-08-18T15:13:37.262Z,23.90
2018-08-18T15:16:07.736Z,23.90
2018-08-18T15:18:43.845Z,23.90
2018-08-18T15:21:13.062Z,23.90
2018-08-18T15:23:44.463Z,23.90
2018-08-18T15:26:13.854Z,23.90
2018-08-18T15:28:44.934Z,23.80
2018-08-18T15:31:14.415Z,23.80
2018-08-18T15:33:45.348Z,23.90
2018-08-18T15:36:26.415Z,23.90
2018-08-18T15:38:55.727Z,23.90
2018-08-18T15:41:28.050Z,23.90
2018-08-18T15:43:57.367Z,23.90
2018-08-18T15:46:27.778Z,24.00
2018-08-18T15:48:57.263Z,24.00
2018-08-18T15:51:26.783Z,24.00
2018-08-18T15:54:03.320Z,23.90
2018-08-18T15:56:34.872Z,23.90
2018-08-18T15:59:04.595Z,23.90
2018-08-18T16:01:35.610Z,23.80
2018-08-18T16:04:06.034Z,23.80
2018-08-18T16:06:35.399Z,23.80
2018-08-18T16:09:06.391Z,23.80
2018-08-18T16:11:36.418Z,23.80
2018-08-18T16:14:07.513Z,23.70
2018-08-18T16:16:53.117Z,23.80
2018-08-18T16:19:22.475Z,23.80
2018-08-18T16:21:51.967Z,23.80
2018-08-18T16:24:42.007Z,23.80
2018-08-18T16:27:11.479Z,23.70
2018-08-18T16:29:41.201Z,23.70
2018-08-18T16:32:21.996Z,23.70
2018-08-18T16:35:04.162Z,23.70
2018-08-18T16:37:40.796Z,23.70
2018-08-18T16:40:14.822Z,23.70
2018-08-18T16:42:45.378Z,23.60
2018-08-18T16:45:15.099Z,23.60
2018-08-18T16:47:58.589Z,23.50
2018-08-18T16:50:30.822Z,23.50
2018-08-18T16:53:07.482Z,23.40
2018-08-18T16:55:38.002Z,23.30
2018-08-18T16:58:07.849Z,23.30
2018-08-18T17:00:58.164Z,23.20
2018-08-18T17:03:37.900Z,23.20
2018-08-18T17:06:07.119Z,23.10
2018-08-18T17:08:36.303Z,23.10
2018-08-18T17:11:05.699Z,23.10
2018-08-18T17:13:36.039Z,23.10
2018-08-18T17:16:07.283Z,23.00
2018-08-18T17:18:39.862Z,23.00
2018-08-18T17:21:10.697Z,23.00
2018-08-18T17:23:40.414Z,22.90
2018-08-18T17:26:09.878Z,22.90
2018-08-18T17:28:40.023Z,22.90
2018-08-18T17:31:09.261Z,22.80
2018-08-18T17:33:38.446Z,22.70
2018-08-18T17:36:13.149Z,22.70
2018-08-18T17:38:42.447Z,22.70
2018-08-18T17:41:11.783Z,22.60
2018-08-18T17:43:42.389Z,22.60
2018-08-18T17:46:12.338Z,22.50
2018-08-18T17:48:48.450Z,22.40
2018-08-18T17:51:17.788Z,22.30
2018-08-18T17:53:51.814Z,22.30
2018-08-18T17:56:21.017Z,22.20
2018-08-18T17:58:53.232Z,22.20
2018-08-18T18:01:25.343Z,22.20
2018-08-18T18:03:57.283Z,22.10
2018-08-18T18:06:29.904Z,22.00
2018-08-18T18:09:03.992Z,22.00
2018-08-18T18:11:38.956Z,21.90
2018-08-18T18:14:11.783Z,21.80
2018-08-18T18:16:47.996Z,21.70
2018-08-18T18:19:20.361Z,21.70
2018-08-18T18:21:52.038Z,21.60
2018-08-18T18:24:35.060Z,21.60
2018-08-18T18:27:09.044Z,21.50
2018-08-18T18:29:40.197Z,21.40
2018-08-18T18:32:11.811Z,21.30
2018-08-18T18:34:48.133Z,21.30
2018-08-18T18:37:17.602Z,21.20
2018-08-18T18:40:00.690Z,21.20
2018-08-18T18:42:31.369Z,21.10
2018-08-18T18:45:00.915Z,21.00
2018-08-18T18:47:40.057Z,20.90
2018-08-18T18:50:12.661Z,20.90
2018-08-18T18:52:43.761Z,20.80
2018-08-18T18:55:14.568Z,20.80
2018-08-18T18:57:58.972Z,20.70
2018-08-18T19:00:28.422Z,20.60
2018-08-18T19:02:58.815Z,20.50
2018-08-18T19:05:29.776Z,20.40
2018-08-18T19:10:53.623Z,20.30
2018-08-18T19:13:25.243Z,20.20
2018-08-18T19:15:57.787Z,20.20
2018-08-18T19:18:27.324Z,20.10
2018-08-18T19:20:58.793Z,20.00
2018-08-18T19:23:28.944Z,20.00
2018-08-18T19:25:58.342Z,19.90
2018-08-18T19:28:27.804Z,19.80
2018-08-18T19:30:58.071Z,19.80
2018-08-18T19:33:27.496Z,19.70
2018-08-18T19:35:58.527Z,19.70
2018-08-18T19:38:29.509Z,19.60
2018-08-18T19:41:03.654Z,19.60
2018-08-18T19:43:33.151Z,19.50
2018-08-18T19:46:02.604Z,19.50
2018-08-18T19:48:34.201Z,19.40
2018-08-18T19:51:05.518Z,19.40
2018-08-18T19:53:36.581Z,19.40
2018-08-18T19:56:10.370Z,19.30
2018-08-18T19:58:40.317Z,19.30
2018-08-18T20:01:10.999Z,19.20
2018-08-18T20:03:40.774Z,19.20
2018-08-18T20:06:16.455Z,19.10
2018-08-18T20:08:46.828Z,19.10
2018-08-18T20:11:16.594Z,19.00
2018-08-18T20:13:48.867Z,19.00
2018-08-18T20:16:18.781Z,18.90
2018-08-18T20:18:48.338Z,18.90
2018-08-18T20:21:20.859Z,18.80
2018-08-18T20:23:51.891Z,18.80
2018-08-18T20:26:21.373Z,18.70
2018-08-18T20:28:51.942Z,18.70
2018-08-18T20:31:21.568Z,18.70
2018-08-18T20:33:52.004Z,18.70
2018-08-18T20:36:22.442Z,18.60
2018-08-18T20:38:59.193Z,18.60
2018-08-18T20:41:29.795Z,18.50
2018-08-18T20:44:00.003Z,18.40
2018-08-18T20:46:30.573Z,18.40
2018-08-18T20:49:02.287Z,18.30
2018-08-18T20:51:34.738Z,18.20
2018-08-18T20:54:05.139Z,18.10
2018-08-18T20:56:38.388Z,18.10
2018-08-18T20:59:10.121Z,18.00
2018-08-18T21:01:40.498Z,18.00
2018-08-18T21:04:10.413Z,18.00
2018-08-18T21:06:42.586Z,18.00
2018-08-18T21:09:23.639Z,17.90
2018-08-18T21:11:54.338Z,17.90
2018-08-18T21:14:26.953Z,17.80
2018-08-18T21:16:56.661Z,17.80
2018-08-18T21:19:26.737Z,17.70
2018-08-18T21:21:57.378Z,17.70
2018-08-18T21:24:28.362Z,17.60
2018-08-18T21:26:58.005Z,17.60
2018-08-18T21:29:27.573Z,17.60
2018-08-18T21:31:56.916Z,17.60
2018-08-18T21:34:26.744Z,17.50
2018-08-18T21:36:57.879Z,17.50
2018-08-18T21:39:27.591Z,17.50
2018-08-18T21:41:58.341Z,17.40
2018-08-18T21:44:31.151Z,17.40
2018-08-18T21:47:01.182Z,17.40
2018-08-18T21:49:30.906Z,17.40
2018-08-18T21:52:01.301Z,17.30
2018-08-18T21:54:30.628Z,17.20
2018-08-18T21:57:00.431Z,17.20
2018-08-18T21:59:42.418Z,17.20
2018-08-18T22:02:11.636Z,17.10
2018-08-18T22:04:42.342Z,17.10
2018-08-18T22:07:11.743Z,17.00
2018-08-18T22:09:41.590Z,17.00
2018-08-18T22:12:10.943Z,16.90
2018-08-18T22:14:40.872Z,16.90
2018-08-18T22:17:12.543Z,16.90
2018-08-18T22:19:41.895Z,16.80
2018-08-18T22:22:17.897Z,16.80
2018-08-18T22:24:49.697Z,16.70
2018-08-18T22:27:23.012Z,16.70
2018-08-18T22:29:52.461Z,16.70
2018-08-18T22:32:24.011Z,16.60
2018-08-18T22:34:53.695Z,16.60
2018-08-18T22:37:26.688Z,16.50
2018-08-18T22:39:57.306Z,16.50
2018-08-18T22:42:32.047Z,16.50
2018-08-18T22:45:13.285Z,16.40
2018-08-18T22:47:44.775Z,16.30
2018-08-18T22:50:16.762Z,16.30
2018-08-18T22:55:34.693Z,16.10
2018-08-18T22:58:04.610Z,16.10
2018-08-18T23:00:37.501Z,16.00
2018-08-18T23:03:06.507Z,16.00
2018-08-18T23:05:35.676Z,16.00
2018-08-18T23:08:08.490Z,16.00
2018-08-18T23:10:38.854Z,16.00
2018-08-18T23:13:10.666Z,15.90
2018-08-18T23:15:42.538Z,15.90
2018-08-18T23:18:15.614Z,15.80
2018-08-18T23:20:44.568Z,15.70
2018-08-18T23:23:14.523Z,15.70
2018-08-18T23:25:44.384Z,15.80
2018-08-18T23:28:13.335Z,15.70
2018-08-18T23:30:43.175Z,15.70
2018-08-18T23:33:14.422Z,15.70
2018-08-18T23:35:44.461Z,15.60
2018-08-18T23:38:15.240Z,15.60
2018-08-18T23:40:44.528Z,15.60
2018-08-18T23:43:14.331Z,15.60
2018-08-18T23:45:50.409Z,15.60
2018-08-18T23:48:19.351Z,15.60
2018-08-18T23:50:48.164Z,15.60
2018-08-18T23:53:19.718Z,15.60
2018-08-18T23:55:55.043Z,15.50
2018-08-18T23:58:24.033Z,15.50
